createdAt,value
2022-10-22T00:01:15.656Z,21.10
2022-10-22T00:03:46.280Z,21.20
2022-10-22T00:06:17.141Z,21.20
2022-10-22T00:08:47.423Z,21.20
2022-10-22T00:11:19.932Z,21.20
2022-10-22T00:13:51.045Z,21.20
2022-10-22T00:16:21.560Z,21.20
2022-10-22T00:18:51.747Z,21.20
2022-10-22T00:21:22.153Z,21.20
2022-10-22T00:23:52.344Z,21.30
2022-10-22T00:26:22.640Z,21.20
2022-10-22T00:28:52.774Z,21.30
2022-10-22T00:31:23.135Z,21.30
2022-10-22T00:33:53.363Z,21.30
2022-10-22T00:36:24.483Z,21.30
2022-10-22T00:38:54.638Z,21.30
2022-10-22T00:41:25.099Z,21.30
2022-10-22T00:44:01.856Z,21.30
2022-10-22T00:46:32.518Z,21.30
2022-10-22T00:49:06.567Z,21.30
2022-10-22T00:51:38.269Z,21.30
2022-10-22T00:54:11.478Z,21.30
2022-10-22T00:56:42.053Z,21.30
2022-10-22T00:59:12.658Z,21.30
2022-10-22T01:01:42.829Z,21.30
2022-10-22T01:04:13.180Z,21.30
2022-10-22T01:06:43.791Z,21.40
2022-10-22T01:09:47.283Z,21.40
2022-10-22T01:12:23.238Z,21.40
2022-10-22T01:15:29.201Z,21.40
2022-10-22T01:18:04.899Z,21.40
2022-10-22T01:20:59.031Z,21.40
2022-10-22T01:23:50.155Z,21.40
2022-10-22T01:26:44.239Z,21.40
2022-10-22T01:29:14.298Z,21.40
2022-10-22T01:32:00.690Z,21.40
2022-10-22T01:34:33.383Z,21.40
2022-10-22T01:37:05.192Z,21.40
2022-10-22T01:39:36.944Z,21.40
2022-10-22T01:42:07.158Z,21.50
2022-10-22T01:44:39.067Z,21.50
2022-10-22T01:47:43.276Z,21.50
2022-10-22T01:50:48.653Z,21.50
2022-10-22T01:53:43.047Z,21.50
2022-10-22T01:56:19.411Z,21.60
2022-10-22T01:59:07.663Z,21.50
2022-10-22T02:02:04.729Z,21.60
2022-10-22T02:04:57.273Z,21.60
2022-10-22T02:07:33.249Z,21.60
2022-10-22T02:10:04.496Z,21.60
2022-10-22T02:12:35.983Z,21.60
2022-10-22T02:15:07.659Z,21.60
2022-10-22T02:17:39.647Z,21.60
2022-10-22T02:20:16.621Z,21.60
2022-10-22T02:22:46.981Z,21.60
2022-10-22T02:25:18.792Z,21.60
2022-10-22T02:27:57.593Z,21.60
2022-10-22T02:30:28.331Z,21.60
2022-10-22T02:33:23.174Z,21.60
2022-10-22T02:35:55.886Z,21.60
2022-10-22T02:38:27.974Z,21.60
2022-10-22T02:40:58.471Z,21.60
2022-10-22T02:43:30.814Z,21.60
2022-10-22T02:46:01.053Z,21.60
2022-10-22T02:48:31.351Z,21.60
2022-10-22T02:51:01.455Z,21.60
2022-10-22T02:53:31.607Z,21.60
2022-10-22T02:56:02.347Z,21.60
2022-10-22T02:58:32.540Z,21.60
2022-10-22T03:01:02.800Z,21.70
2022-10-22T03:03:33.023Z,21.60
2022-10-22T03:06:03.315Z,21.70
2022-10-22T03:08:33.636Z,21.70
2022-10-22T03:11:03.872Z,21.70
2022-10-22T03:13:34.003Z,21.70
2022-10-22T03:16:04.390Z,21.70
2022-10-22T03:18:34.573Z,21.70
2022-10-22T03:21:13.767Z,21.70
2022-10-22T03:23:45.825Z,21.70
2022-10-22T03:26:17.741Z,21.70
2022-10-22T03:28:50.061Z,21.70
2022-10-22T03:31:20.239Z,21.70
2022-10-22T03:33:50.450Z,21.70
2022-10-22T03:36:20.770Z,21.70
2022-10-22T03:41:34.176Z,21.70
2022-10-22T03:44:05.952Z,21.70
2022-10-22T03:46:36.123Z,21.70
2022-10-22T03:49:06.375Z,21.70
2022-10-22T03:51:37.558Z,21.70
2022-10-22T03:54:07.976Z,21.70
2022-10-22T03:56:38.173Z,21.70
2022-10-22T03:59:08.439Z,21.70
2022-10-22T04:01:38.635Z,21.70
2022-10-22T04:04:09.063Z,21.70
2022-10-22T04:06:39.257Z,21.70
2022-10-22T04:09:09.701Z,21.70
2022-10-22T04:11:39.857Z,21.70
2022-10-22T04:14:10.036Z,21.70
2022-10-22T04:16:42.888Z,21.70
2022-10-22T04:19:13.306Z,21.70
2022-10-22T04:21:43.640Z,21.70
2022-10-22T04:24:14.025Z,21.70
2022-10-22T04:26:44.273Z,21.70
2022-10-22T04:29:16.200Z,21.70
2022-10-22T04:31:46.668Z,21.70
2022-10-22T04:34:17.005Z,21.70
2022-10-22T04:36:47.481Z,21.70
2022-10-22T04:39:17.787Z,21.70
2022-10-22T04:41:48.112Z,21.70
2022-10-22T04:44:18.458Z,21.70
2022-10-22T04:46:49.337Z,21.70
2022-10-22T04:49:20.384Z,21.80
2022-10-22T04:51:50.700Z,21.80
2022-10-22T04:54:21.228Z,21.80
2022-10-22T04:56:51.595Z,21.80
2022-10-22T04:59:22.268Z,21.70
2022-10-22T05:01:52.511Z,21.70
2022-10-22T05:04:22.632Z,21.70
2022-10-22T05:06:52.799Z,21.80
2022-10-22T05:09:23.805Z,21.80
2022-10-22T05:11:55.578Z,21.80
2022-10-22T05:14:27.151Z,21.80
2022-10-22T05:16:57.620Z,21.80
2022-10-22T05:19:30.997Z,21.80
2022-10-22T05:22:03.863Z,21.80
2022-10-22T05:24:38.449Z,21.80
2022-10-22T05:27:08.687Z,21.80
2022-10-22T05:29:38.930Z,21.80
2022-10-22T05:32:09.059Z,21.80
2022-10-22T05:34:39.212Z,21.80
2022-10-22T05:37:09.391Z,21.80
2022-10-22T05:39:42.072Z,21.80
2022-10-22T05:42:12.223Z,21.80
2022-10-22T05:44:42.653Z,21.80
2022-10-22T05:47:12.862Z,21.80
2022-10-22T05:49:43.069Z,21.80
2022-10-22T05:52:14.033Z,21.80
2022-10-22T05:54:44.355Z,21.80
2022-10-22T05:57:14.432Z,21.80
2022-10-22T05:59:44.606Z,21.80
2022-10-22T06:02:14.947Z,21.80
2022-10-22T06:04:45.254Z,21.80
2022-10-22T06:07:18.383Z,21.80
2022-10-22T06:09:51.834Z,21.80
2022-10-22T06:12:22.400Z,21.80
2022-10-22T06:14:52.747Z,21.80
2022-10-22T06:17:22.859Z,21.80
2022-10-22T06:19:53.168Z,21.80
2022-10-22T06:22:23.322Z,21.80
2022-10-22T06:24:54.285Z,21.80
2022-10-22T06:27:24.372Z,21.80
2022-10-22T06:29:54.524Z,21.80
2022-10-22T06:32:24.816Z,21.80
2022-10-22T06:34:54.994Z,21.80
2022-10-22T06:37:25.227Z,21.80
2022-10-22T06:39:55.364Z,21.80
2022-10-22T06:42:25.748Z,21.80
2022-10-22T06:44:55.978Z,21.80
2022-10-22T06:47:26.219Z,21.80
2022-10-22T06:49:56.428Z,21.80
2022-10-22T06:52:26.819Z,21.80
2022-10-22T06:54:56.970Z,21.80
2022-10-22T06:57:27.137Z,21.80
2022-10-22T06:59:57.302Z,21.80
2022-10-22T07:02:27.415Z,21.90
2022-10-22T07:04:57.827Z,21.90
2022-10-22T07:07:27.889Z,21.90
2022-10-22T07:09:58.007Z,21.90
2022-10-22T07:12:28.795Z,21.90
2022-10-22T07:14:58.874Z,21.90
2022-10-22T07:17:29.020Z,21.90
2022-10-22T07:19:59.164Z,21.90
2022-10-22T07:22:29.829Z,21.90
2022-10-22T07:25:02.536Z,21.90
2022-10-22T07:27:34.027Z,21.90
2022-10-22T07:30:04.326Z,21.90
2022-10-22T07:32:34.441Z,21.90
2022-10-22T07:35:04.639Z,21.90
2022-10-22T07:37:34.793Z,21.90
2022-10-22T07:40:06.040Z,21.90
2022-10-22T07:42:36.146Z,21.90
2022-10-22T07:45:07.192Z,21.90
2022-10-22T07:47:37.555Z,21.80
2022-10-22T07:50:09.089Z,21.90
2022-10-22T07:52:39.475Z,21.90
2022-10-22T07:55:10.724Z,21.90
2022-10-22T07:57:41.069Z,21.80
2022-10-22T08:00:12.133Z,21.90
2022-10-22T08:02:42.649Z,21.80
2022-10-22T08:05:14.974Z,21.80
2022-10-22T08:07:45.519Z,21.80
2022-10-22T08:10:16.248Z,21.80
2022-10-22T08:12:46.449Z,21.80
2022-10-22T08:15:16.706Z,21.80
2022-10-22T08:17:46.877Z,21.80
2022-10-22T08:20:17.231Z,21.80
2022-10-22T08:22:47.717Z,21.80
2022-10-22T08:25:19.683Z,21.90
2022-10-22T08:27:50.173Z,21.80
2022-10-22T08:30:21.351Z,21.80
2022-10-22T08:32:53.950Z,21.80
2022-10-22T08:35:24.619Z,21.80
2022-10-22T08:37:54.932Z,21.80
2022-10-22T08:40:33.982Z,21.80
2022-10-22T08:43:16.576Z,21.80
2022-10-22T08:46:06.683Z,21.80
2022-10-22T08:48:49.905Z,21.80
2022-10-22T08:51:26.971Z,21.80
2022-10-22T08:54:24.382Z,21.80
2022-10-22T08:57:23.847Z,21.80
2022-10-22T09:00:00.591Z,21.80
2022-10-22T09:02:55.205Z,21.80
2022-10-22T09:05:45.108Z,21.80
2022-10-22T09:08:28.873Z,21.80
2022-10-22T09:11:22.088Z,21.80
2022-10-22T09:13:53.094Z,21.80
2022-10-22T09:16:49.451Z,21.80
2022-10-22T09:19:44.226Z,21.80
2022-10-22T09:25:15.558Z,21.80
2022-10-22T09:27:45.687Z,21.80
2022-10-22T09:30:25.372Z,21.80
2022-10-22T09:33:10.213Z,21.80
2022-10-22T09:35:57.513Z,21.80
2022-10-22T09:38:33.497Z,21.80
2022-10-22T09:41:05.501Z,21.80
2022-10-22T09:43:37.829Z,21.80
2022-10-22T09:46:16.517Z,21.80
2022-10-22T09:49:13.361Z,21.80
2022-10-22T09:51:59.124Z,21.80
2022-10-22T09:54:35.412Z,21.80
2022-10-22T09:57:12.693Z,21.70
2022-10-22T09:59:44.804Z,21.80
2022-10-22T10:02:37.560Z,21.70
2022-10-22T10:05:09.518Z,21.70
2022-10-22T10:07:40.645Z,21.70
2022-10-22T10:10:46.727Z,21.70
2022-10-22T10:13:27.929Z,21.80
2022-10-22T10:16:10.021Z,21.80
2022-10-22T10:18:48.787Z,21.70
2022-10-22T10:21:40.942Z,21.80
2022-10-22T10:24:36.507Z,21.80
2022-10-22T10:27:46.992Z,21.80
2022-10-22T10:30:22.826Z,21.80
2022-10-22T10:33:14.044Z,21.70
2022-10-22T10:35:56.820Z,21.70
2022-10-22T10:38:50.811Z,21.70
2022-10-22T10:41:28.345Z,21.70
2022-10-22T10:44:20.899Z,21.70
2022-10-22T10:47:03.342Z,21.70
2022-10-22T10:49:37.886Z,21.70
2022-10-22T10:52:29.616Z,21.70
2022-10-22T10:55:02.280Z,21.70
2022-10-22T10:57:59.646Z,21.70
2022-10-22T11:00:35.921Z,21.70
2022-10-22T11:03:24.083Z,21.70
2022-10-22T11:06:19.446Z,21.70
2022-10-22T11:09:30.046Z,21.70
2022-10-22T11:12:06.637Z,21.70
2022-10-22T11:14:54.315Z,21.70
2022-10-22T11:17:26.955Z,21.70
2022-10-22T11:20:24.714Z,21.70
2022-10-22T11:23:20.880Z,21.70
2022-10-22T11:25:53.028Z,21.70
2022-10-22T11:28:32.444Z,21.60
2022-10-22T11:31:06.698Z,21.70
2022-10-22T11:33:45.986Z,21.70
2022-10-22T11:36:17.416Z,21.70
2022-10-22T11:38:47.641Z,21.70
2022-10-22T11:41:26.100Z,21.70
2022-10-22T11:44:01.203Z,21.70
2022-10-22T11:47:00.124Z,21.70
2022-10-22T11:49:48.748Z,21.70
2022-10-22T11:52:27.839Z,21.60
2022-10-22T11:55:00.650Z,21.60
2022-10-22T11:57:40.182Z,21.60
2022-10-22T12:00:43.071Z,21.70
2022-10-22T12:03:45.471Z,21.70
2022-10-22T12:06:17.140Z,21.70
2022-10-22T12:08:47.639Z,21.60
2022-10-22T12:11:51.199Z,21.60
2022-10-22T12:14:37.047Z,21.60
2022-10-22T12:17:17.907Z,21.60
2022-10-22T12:20:02.079Z,21.60
2022-10-22T12:22:35.692Z,21.60
2022-10-22T12:25:19.911Z,21.60
2022-10-22T12:27:55.113Z,21.60
2022-10-22T12:30:28.341Z,21.60
2022-10-22T12:33:04.022Z,21.60
2022-10-22T12:35:59.153Z,21.60
2022-10-22T12:38:29.293Z,21.60
2022-10-22T12:41:00.160Z,21.50
2022-10-22T12:43:32.770Z,21.50
2022-10-22T12:46:03.134Z,21.60
2022-10-22T12:48:41.074Z,21.50
2022-10-22T12:51:16.149Z,21.50
2022-10-22T12:53:50.279Z,21.50
2022-10-22T12:56:35.667Z,21.50
2022-10-22T12:59:32.904Z,21.50
2022-10-22T13:02:05.763Z,21.50
2022-10-22T13:04:40.315Z,21.50
2022-10-22T13:07:18.524Z,21.40
2022-10-22T13:10:28.971Z,21.50
2022-10-22T13:13:01.240Z,21.50
2022-10-22T13:15:35.179Z,21.40
2022-10-22T13:18:21.536Z,21.40
2022-10-22T13:20:57.632Z,21.40
2022-10-22T13:23:29.839Z,21.40
2022-10-22T13:26:18.295Z,21.40
2022-10-22T13:28:59.619Z,21.50
2022-10-22T13:31:33.843Z,21.40
2022-10-22T13:34:17.233Z,21.40
2022-10-22T13:36:47.683Z,21.40
2022-10-22T13:39:23.186Z,21.30
2022-10-22T13:41:53.885Z,21.40
2022-10-22T13:44:24.021Z,21.30
2022-10-22T13:46:54.235Z,21.40
2022-10-22T13:49:25.057Z,21.30
2022-10-22T13:51:55.313Z,21.30
2022-10-22T13:54:26.983Z,21.30
2022-10-22T13:56:57.174Z,21.30
2022-10-22T13:59:27.353Z,21.30
2022-10-22T14:01:58.673Z,21.30
2022-10-22T14:04:28.816Z,21.30
2022-10-22T14:07:01.331Z,21.30
2022-10-22T14:09:33.775Z,21.30
2022-10-22T14:12:03.890Z,21.30
2022-10-22T14:14:34.014Z,21.30
2022-10-22T14:17:04.659Z,21.20
2022-10-22T14:19:35.216Z,21.20
2022-10-22T14:22:05.452Z,21.30
2022-10-22T14:24:35.577Z,21.30
2022-10-22T14:27:05.709Z,21.20
2022-10-22T14:29:35.921Z,21.20
2022-10-22T14:32:06.241Z,21.20
2022-10-22T14:34:36.979Z,21.20
2022-10-22T14:37:07.159Z,21.30
2022-10-22T14:39:37.373Z,21.20
2022-10-22T14:42:11.198Z,21.20
2022-10-22T14:44:41.344Z,21.20
2022-10-22T14:47:11.412Z,21.20
2022-10-22T14:49:41.591Z,21.20
2022-10-22T14:52:14.841Z,21.20
2022-10-22T14:54:45.372Z,21.20
2022-10-22T14:57:16.315Z,21.10
2022-10-22T14:59:46.487Z,21.10
2022-10-22T15:02:16.905Z,21.10
2022-10-22T15:04:47.387Z,21.10
2022-10-22T15:07:19.006Z,21.10
2022-10-22T15:09:49.432Z,21.10
2022-10-22T15:12:22.486Z,21.10
2022-10-22T15:14:53.068Z,21.10
2022-10-22T15:17:23.292Z,21.10
2022-10-22T15:19:54.800Z,21.10
2022-10-22T15:22:25.234Z,21.00
2022-10-22T15:24:55.484Z,21.10
2022-10-22T15:27:26.019Z,21.10
2022-10-22T15:29:58.953Z,21.10
2022-10-22T15:32:30.833Z,21.10
2022-10-22T15:35:00.950Z,21.10
2022-10-22T15:37:31.132Z,21.00
2022-10-22T15:40:02.325Z,21.00
2022-10-22T15:42:32.429Z,21.00
2022-10-22T15:45:04.036Z,21.00
2022-10-22T15:47:35.267Z,21.00
2022-10-22T15:50:05.867Z,21.00
2022-10-22T15:52:36.009Z,21.00
2022-10-22T15:55:08.596Z,21.00
2022-10-22T15:57:39.758Z,21.00
2022-10-22T16:00:11.269Z,20.90
2022-10-22T16:02:41.516Z,21.00
2022-10-22T16:05:12.037Z,21.00
2022-10-22T16:07:42.388Z,20.90
2022-10-22T16:10:14.662Z,20.90
2022-10-22T16:12:44.915Z,20.90
2022-10-22T16:15:15.096Z,20.90
2022-10-22T16:17:45.216Z,20.90
2022-10-22T16:20:15.434Z,20.90
2022-10-22T16:22:45.534Z,20.90
2022-10-22T16:25:16.008Z,20.90
2022-10-22T16:27:46.193Z,20.90
2022-10-22T16:30:17.304Z,20.90
2022-10-22T16:32:47.477Z,20.90
2022-10-22T16:35:17.688Z,20.90
2022-10-22T16:37:48.353Z,20.90
2022-10-22T16:40:18.491Z,20.80
2022-10-22T16:42:48.942Z,20.80
2022-10-22T16:45:19.909Z,20.80
2022-10-22T16:47:50.691Z,20.80
2022-10-22T16:50:20.930Z,20.80
2022-10-22T16:52:52.395Z,20.80
2022-10-22T16:55:22.742Z,20.80
2022-10-22T16:57:55.145Z,20.80
2022-10-22T17:00:25.333Z,20.80
2022-10-22T17:02:57.142Z,20.80
2022-10-22T17:05:27.313Z,20.80
2022-10-22T17:07:57.501Z,20.80
2022-10-22T17:10:27.709Z,20.80
2022-10-22T17:12:57.855Z,20.80
2022-10-22T17:15:28.011Z,20.70
2022-10-22T17:17:58.903Z,20.70
2022-10-22T17:20:29.359Z,20.70
2022-10-22T17:22:59.743Z,20.70
2022-10-22T17:25:46.216Z,20.70
2022-10-22T17:28:16.438Z,20.70
2022-10-22T17:30:46.582Z,20.70
2022-10-22T17:33:16.795Z,20.70
2022-10-22T17:35:46.990Z,20.70
2022-10-22T17:38:17.576Z,20.70
2022-10-22T17:40:47.678Z,20.70
2022-10-22T17:43:17.788Z,20.70
2022-10-22T17:45:48.075Z,20.60
2022-10-22T17:48:18.319Z,20.70
2022-10-22T17:50:50.709Z,20.60
2022-10-22T17:53:22.233Z,20.60
2022-10-22T17:55:52.391Z,20.60
2022-10-22T17:58:22.506Z,20.60
2022-10-22T18:00:52.696Z,20.60
2022-10-22T18:03:22.929Z,20.60
2022-10-22T18:05:52.990Z,20.60
2022-10-22T18:08:28.341Z,20.60
2022-10-22T18:10:58.563Z,20.60
2022-10-22T18:13:28.730Z,20.60
2022-10-22T18:15:59.554Z,20.60
2022-10-22T18:18:29.806Z,20.60
2022-10-22T18:21:02.103Z,20.60
2022-10-22T18:23:32.297Z,20.60
2022-10-22T18:26:02.371Z,20.50
2022-10-22T18:28:32.599Z,20.50
2022-10-22T18:31:07.527Z,20.60
2022-10-22T18:33:39.267Z,20.50
2022-10-22T18:36:12.547Z,20.50
2022-10-22T18:38:42.862Z,20.50
2022-10-22T18:41:16.409Z,20.50
2022-10-22T18:43:46.507Z,20.50
2022-10-22T18:46:16.713Z,20.50
2022-10-22T18:48:47.284Z,20.50
2022-10-22T18:51:18.216Z,20.50
2022-10-22T18:53:59.273Z,20.50
2022-10-22T18:56:42.443Z,20.50
2022-10-22T18:59:22.382Z,20.40
2022-10-22T19:01:56.669Z,20.50
2022-10-22T19:04:26.809Z,20.40
2022-10-22T19:06:58.808Z,20.40
2022-10-22T19:09:29.308Z,20.40
2022-10-22T19:11:59.742Z,20.40
2022-10-22T19:14:30.599Z,20.40
2022-10-22T19:17:00.890Z,20.40
2022-10-22T19:19:31.102Z,20.40
2022-10-22T19:22:01.424Z,20.40
2022-10-22T19:24:31.612Z,20.40
2022-10-22T19:27:01.915Z,20.40
2022-10-22T19:29:32.274Z,20.40
2022-10-22T19:32:02.833Z,20.40
2022-10-22T19:34:33.246Z,20.40
2022-10-22T19:37:03.791Z,20.40
2022-10-22T19:39:33.985Z,20.40
2022-10-22T19:42:05.821Z,20.40
2022-10-22T19:44:36.105Z,20.30
2022-10-22T19:47:06.405Z,20.30
2022-10-22T19:49:36.687Z,20.30
2022-10-22T19:52:06.872Z,20.30
2022-10-22T19:54:40.310Z,20.30
2022-10-22T19:57:10.920Z,20.30
2022-10-22T19:59:41.058Z,20.30
2022-10-22T20:02:18.520Z,20.30
2022-10-22T20:04:50.037Z,20.30
2022-10-22T20:07:20.407Z,20.30
2022-10-22T20:09:50.465Z,20.30
2022-10-22T20:12:20.582Z,20.30
2022-10-22T20:14:51.591Z,20.30
2022-10-22T20:17:21.778Z,20.30
2022-10-22T20:19:51.919Z,20.20
2022-10-22T20:22:22.126Z,20.30
2022-10-22T20:24:52.227Z,20.20
2022-10-22T20:27:23.063Z,20.30
2022-10-22T20:29:53.182Z,20.30
2022-10-22T20:32:23.754Z,20.20
2022-10-22T20:34:53.933Z,20.20
2022-10-22T20:37:24.087Z,20.20
2022-10-22T20:39:54.259Z,20.20
2022-10-22T20:42:24.425Z,20.20
2022-10-22T20:44:54.521Z,20.20
2022-10-22T20:47:30.467Z,20.20
2022-10-22T20:50:11.575Z,20.20
2022-10-22T20:52:41.788Z,20.20
2022-10-22T20:55:11.976Z,20.20
2022-10-22T20:57:42.439Z,20.20
2022-10-22T21:00:13.474Z,20.20
2022-10-22T21:02:43.691Z,20.20
2022-10-22T21:05:13.835Z,20.20
2022-10-22T21:07:44.251Z,20.20
2022-10-22T21:10:14.578Z,20.20
2022-10-22T21:12:45.427Z,20.20
2022-10-22T21:15:15.731Z,20.20
2022-10-22T21:17:45.843Z,20.20
2022-10-22T21:20:17.137Z,20.20
2022-10-22T21:22:50.297Z,20.20
2022-10-22T21:25:20.478Z,20.20
2022-10-22T21:27:50.634Z,20.20
2022-10-22T21:30:20.797Z,20.20
2022-10-22T21:32:51.088Z,20.30
2022-10-22T21:35:21.321Z,20.30
2022-10-22T21:37:51.422Z,20.30
2022-10-22T21:40:23.535Z,20.30
2022-10-22T21:42:53.904Z,20.30
2022-10-22T21:45:24.108Z,20.40
2022-10-22T21:47:54.327Z,20.30
2022-10-22T21:50:24.524Z,20.40
2022-10-22T21:52:54.636Z,20.40
2022-10-22T21:55:24.782Z,20.40
2022-10-22T21:57:54.848Z,20.40
2022-10-22T22:00:25.093Z,20.40
2022-10-22T22:02:55.309Z,20.40
2022-10-22T22:05:25.408Z,20.40
2022-10-22T22:07:55.695Z,20.40
2022-10-22T22:10:28.213Z,20.40
2022-10-22T22:12:58.388Z,20.40
2022-10-22T22:15:28.526Z,20.40
2022-10-22T22:17:58.702Z,20.50
2022-10-22T22:20:29.171Z,20.50
2022-10-22T22:22:59.413Z,20.50
2022-10-22T22:25:29.495Z,20.50
2022-10-22T22:27:59.627Z,20.50
2022-10-22T22:30:30.948Z,20.50
2022-10-22T22:33:01.343Z,20.50
2022-10-22T22:35:31.625Z,20.50
2022-10-22T22:38:01.907Z,20.60
2022-10-22T22:40:33.929Z,20.50
2022-10-22T22:43:04.160Z,20.60
2022-10-22T22:45:34.971Z,20.60
2022-10-22T22:48:06.062Z,20.60
2022-10-22T22:50:36.228Z,20.60
2022-10-22T22:53:06.391Z,20.60
2022-10-22T22:55:36.583Z,20.60
2022-10-22T22:58:06.650Z,20.60
2022-10-22T23:00:36.948Z,20.60
2022-10-22T23:03:07.321Z,20.60
2022-10-22T23:05:39.543Z,20.60
2022-10-22T23:08:09.796Z,20.60
2022-10-22T23:10:40.027Z,20.70
2022-10-22T23:13:10.217Z,20.70
2022-10-22T23:15:42.578Z,20.70
2022-10-22T23:18:12.943Z,20.70
2022-10-22T23:20:45.938Z,20.70
2022-10-22T23:23:16.079Z,20.70
2022-10-22T23:25:46.320Z,20.70
2022-10-22T23:28:16.470Z,20.70
2022-10-22T23:30:49.947Z,20.70
2022-10-22T23:33:21.098Z,20.70
2022-10-22T23:35:51.379Z,20.70
2022-10-22T23:38:21.555Z,20.80
2022-10-22T23:40:58.258Z,20.80
2022-10-22T23:43:29.560Z,20.80
2022-10-22T23:45:59.987Z,20.80
2022-10-22T23:48:30.139Z,20.80
2022-10-22T23:51:05.289Z,20.80
2022-10-22T23:53:35.445Z,20.80
2022-10-22T23:56:10.865Z,20.80
2022-10-22T23:58:41.320Z,20.80
